Sparta, Michigan
Current Conditions -  °F | °C
As of 2:53 PM on Wednesday 26 Nov 2014 (Local Time) from KGRR Reporting Station
Overcast Overcast  
Wind Chill: -2°   Ceiling: 2300
Heat Index: -2°   Visibility: 10mi
Dew Point: -6°   Wind: 3mph
Humidity: 72%   Direction: 90°E
Pressure: 30.13"   Gusts: NA
Location:  43.16°N, 85.71°W
Report Text: KGRR 261953Z 09003KT 10SM OVC023 M02/M06 A3013 RMK AO2 SLP213 T10171061
Loading
Personal Weather Stations






























Interactive Weather Map New forecast layout! Learn more

10-Day Weather Forecast

Advertisements
Track Severe Weather on mobile